Time;durP1;ratioP1;P1;durP2;ratioP2;P2;SDS_P1;SDS_P2;PMS_P1;PMS_P2;Temp;Humidity;BMP_temperature;BMP_pressure;BME280_temperature;BME280_humidity;BME280_pressure;Samples;Min_cycle;Max_cycle;Signal;HPM_P1;HPM_P2
2021/08/02 00:00:38;;;;;;;12.52;9.98;;;;;;;16.24;76.83;99290.97;5025065;28;20045;-70
2021/08/02 00:03:18;;;;;;;11.45;9.32;;;;;;;16.25;77.02;99293.53;5030613;28;20056;-71
2021/08/02 00:05:46;;;;;;;16.48;9.43;;;;;;;16.28;76.71;99292.44;5031473;28;20041;-71
2021/08/02 00:08:18;;;;;;;13.55;11.15;;;;;;;16.30;76.64;99293.16;5031261;28;20079;-71
2021/08/02 00:10:45;;;;;;;12.13;9.90;;;;;;;16.31;76.53;99294.84;5030399;28;20120;-71
2021/08/02 00:13:15;;;;;;;11.38;10.18;;;;;;;16.31;76.60;99290.34;5031610;28;20033;-71
2021/08/02 00:15:44;;;;;;;11.30;10.13;;;;;;;16.32;76.39;99291.22;5031597;28;20495;-71
2021/08/02 00:18:11;;;;;;;12.57;11.20;;;;;;;16.30;76.51;99288.69;5030009;28;20566;-70
2021/08/02 00:20:37;;;;;;;14.02;10.02;;;;;;;16.33;76.47;99292.91;5030436;28;20037;-70
2021/08/02 00:23:06;;;;;;;13.65;10.82;;;;;;;16.36;76.36;99289.16;5031170;28;20037;-70
2021/08/02 00:25:32;;;;;;;14.45;10.02;;;;;;;16.36;76.47;99291.81;5031320;28;20029;-70
2021/08/02 00:28:00;;;;;;;13.90;11.25;;;;;;;16.38;76.08;99296.03;5030218;28;20559;-70
2021/08/02 00:30:25;;;;;;;12.38;11.07;;;;;;;16.36;76.13;99300.63;5031678;28;20037;-70
2021/08/02 00:32:52;;;;;;;13.63;11.02;;;;;;;16.34;76.27;99293.75;5030179;28;20087;-70
2021/08/02 00:35:18;;;;;;;13.95;11.70;;;;;;;16.31;76.35;99294.84;5029096;28;20034;-70
2021/08/02 00:37:58;;;;;;;14.55;10.63;;;;;;;16.30;76.45;99294.00;5006426;28;20040;-70
2021/08/02 00:40:48;;;;;;;13.80;12.40;;;;;;;16.30;76.31;99294.00;5011411;28;20042;-70
2021/08/02 00:43:40;;;;;;;13.20;11.80;;;;;;;16.30;76.78;99294.00;5011167;28;20033;-70
2021/08/02 00:46:06;;;;;;;15.25;13.65;;;;;;;16.32;76.50;99296.53;5011291;28;20033;-70
2021/08/02 00:48:43;;;;;;;14.27;12.75;;;;;;;16.33;76.28;99294.72;5010306;28;20032;-70
2021/08/02 00:51:10;;;;;;;17.73;14.27;;;;;;;16.30;76.66;99293.16;4985096;28;20049;-70
2021/08/02 00:53:38;;;;;;;15.88;14.18;;;;;;;16.29;76.84;99294.97;5010041;28;20026;-70
2021/08/02 00:56:03;;;;;;;17.40;14.45;;;;;;;16.26;77.08;99297.03;5029324;28;20037;-70
2021/08/02 00:58:31;;;;;;;17.27;13.90;;;;;;;16.21;76.93;99288.56;5030087;28;20037;-70
2021/08/02 01:00:58;;;;;;;17.55;13.35;;;;;;;16.18;76.92;99300.31;5008158;28;20084;-69
2021/08/02 01:03:28;;;;;;;20.77;13.80;;;;;;;16.18;77.24;99297.66;5029748;28;20385;-71
2021/08/02 01:05:54;;;;;;;15.68;14.00;;;;;;;16.21;77.18;99288.56;5031550;28;20037;-70
2021/08/02 01:08:27;;;;;;;17.23;14.02;;;;;;;16.19;76.96;99296.66;5033555;28;20052;-69
2021/08/02 01:11:01;;;;;;;14.50;12.57;;;;;;;16.20;77.05;99295.72;5033469;28;20091;-70
2021/08/02 01:13:29;;;;;;;16.70;12.07;;;;;;;16.19;76.77;99303.81;5039523;28;20053;-70
2021/08/02 01:15:58;;;;;;;11.68;10.57;;;;;;;16.18;76.91;99299.47;5038748;28;20029;-72
2021/08/02 01:18:23;;;;;;;13.77;11.95;;;;;;;16.18;77.00;99294.16;5033023;28;20059;-70
2021/08/02 01:20:52;;;;;;;17.15;14.35;;;;;;;16.12;77.33;99298.16;5033767;28;20037;-70
2021/08/02 01:23:19;;;;;;;14.65;13.15;;;;;;;16.07;77.15;99298.53;5032184;28;20489;-70
2021/08/02 01:25:44;;;;;;;15.50;13.07;;;;;;;16.05;76.92;99288.97;5031816;28;20120;-71
2021/08/02 01:28:12;;;;;;;14.23;12.50;;;;;;;16.07;77.08;99297.66;5031248;28;20478;-71
2021/08/02 01:30:38;;;;;;;15.05;13.48;;;;;;;16.06;76.95;99293.31;5032071;28;20033;-71
2021/08/02 01:33:03;;;;;;;14.52;12.68;;;;;;;16.03;77.12;99291.75;5031066;28;20393;-71
2021/08/02 01:35:29;;;;;;;14.70;13.15;;;;;;;16.03;76.79;99293.56;5029084;28;20040;-71
2021/08/02 01:37:56;;;;;;;14.88;12.52;;;;;;;16.01;77.21;99290.19;5029074;28;20042;-71
2021/08/02 01:40:22;;;;;;;13.55;11.45;;;;;;;16.03;77.17;99285.59;5029849;28;20065;-71
2021/08/02 01:42:47;;;;;;;12.05;10.80;;;;;;;16.05;76.95;99287.16;5031013;28;20068;-70
2021/08/02 01:45:13;;;;;;;16.45;12.98;;;;;;;16.06;77.39;99283.50;5030108;28;20049;-71
2021/08/02 01:47:59;;;;;;;15.25;13.70;;;;;;;16.12;77.32;99287.50;5030081;28;20446;-71
2021/08/02 01:50:37;;;;;;;12.15;10.85;;;;;;;16.09;77.41;99280.59;5030022;28;20030;-71
2021/08/02 01:53:25;;;;;;;13.90;10.90;;;;;;;16.09;78.11;99285.91;5032917;28;20029;-71
2021/08/02 01:55:59;;;;;;;13.80;12.25;;;;;;;16.05;78.31;99287.16;5036663;28;20045;-71
2021/08/02 01:58:29;;;;;;;15.77;12.43;;;;;;;15.98;79.13;99287.78;5062022;28;20029;-69
2021/08/02 02:00:55;;;;;;;15.77;12.65;;;;;;;15.96;80.13;99284.38;5045222;28;20044;-70
2021/08/02 02:03:30;;;;;;;16.05;14.00;;;;;;;15.93;80.03;99288.13;5025032;28;20030;-71
2021/08/02 02:06:14;;;;;;;19.77;14.55;;;;;;;15.80;80.09;99285.59;5032304;28;20037;-71
2021/08/02 02:08:56;;;;;;;18.15;14.32;;;;;;;15.72;80.71;99274.72;5031144;28;20029;-70
2021/08/02 02:11:23;;;;;;;20.45;17.85;;;;;;;15.67;81.04;99280.34;5031792;28;20030;-70
2021/08/02 02:13:53;;;;;;;17.25;15.27;;;;;;;15.64;81.22;99277.09;5031055;28;20038;-71
2021/08/02 02:16:19;;;;;;;18.20;15.98;;;;;;;15.59;81.08;99279.28;5029268;28;20456;-70
2021/08/02 02:18:55;;;;;;;17.35;14.73;;;;;;;15.53;81.91;99280.59;5020360;28;20033;-71
2021/08/02 02:21:51;;;;;;;19.98;16.02;;;;;;;15.42;82.41;99284.09;5039045;28;20071;-70
2021/08/02 02:24:26;;;;;;;24.55;18.45;;;;;;;15.37;83.23;99282.75;5034645;28;20030;-70
2021/08/02 02:27:15;;;;;;;14.80;13.07;;;;;;;15.37;83.03;99294.22;5034962;28;20035;-69
2021/08/02 02:29:41;;;;;;;22.88;15.98;;;;;;;15.38;83.65;99289.75;5025139;28;20040;-69
2021/08/02 02:32:08;;;;;;;19.10;13.75;;;;;;;15.38;83.60;99289.75;5031356;28;20042;-70
2021/08/02 02:34:36;;;;;;;27.50;19.15;;;;;;;15.37;83.92;99288.91;5010011;28;20033;-69
2021/08/02 02:37:03;;;;;;;29.92;18.98;;;;;;;15.35;83.74;99298.78;5028403;28;20374;-70
2021/08/02 02:40:01;;;;;;;14.15;12.13;;;;;;;15.33;83.74;99286.59;5012970;28;20486;-70
2021/08/02 02:42:40;;;;;;;12.43;11.18;;;;;;;15.34;83.84;99288.31;5037297;28;20024;-70
2021/08/02 02:45:15;;;;;;;13.32;11.38;;;;;;;15.32;83.24;99291.06;5029696;28;20128;-70
2021/08/02 02:47:42;;;;;;;23.27;16.15;;;;;;;15.37;83.13;99286.25;5010640;28;20455;-70
2021/08/02 02:50:09;;;;;;;14.32;10.63;;;;;;;15.39;83.64;99288.81;5009666;28;20620;-69
2021/08/02 02:52:36;;;;;;;18.88;15.95;;;;;;;15.41;83.27;99295.69;5010190;28;20034;-70
2021/08/02 02:55:21;;;;;;;12.55;10.95;;;;;;;15.40;83.18;99287.81;5008683;28;20030;-70
2021/08/02 02:58:02;;;;;;;28.10;18.35;;;;;;;15.43;83.63;99290.22;5007460;28;20496;-70
2021/08/02 03:00:27;;;;;;;13.35;11.85;;;;;;;15.43;83.68;99295.53;5013767;28;20025;-71
2021/08/02 03:02:56;;;;;;;13.50;11.18;;;;;;;15.45;82.65;99291.81;5004053;28;20041;-70
2021/08/02 03:05:23;;;;;;;13.00;11.38;;;;;;;15.47;82.52;99294.34;4999954;28;20038;-70
2021/08/02 03:07:56;;;;;;;16.13;14.35;;;;;;;15.51;82.48;99290.50;5006508;28;20037;-70
2021/08/02 03:10:42;;;;;;;17.02;12.70;;;;;;;15.54;82.57;99295.56;5000560;28;20037;-70
2021/08/02 03:13:19;;;;;;;16.73;13.80;;;;;;;15.53;81.84;99298.34;5008546;28;20559;-69
2021/08/02 03:15:45;;;;;;;15.15;12.20;;;;;;;15.46;81.05;99287.38;5007445;28;20095;-71
2021/08/02 03:18:10;;;;;;;17.88;11.30;;;;;;;15.41;80.36;99284.22;5004579;28;20553;-70
2021/08/02 03:20:36;;;;;;;23.52;15.55;;;;;;;15.40;80.72;99285.16;5019354;28;20498;-71
2021/08/02 03:23:25;;;;;;;12.68;11.38;;;;;;;15.41;81.99;99289.53;5009241;28;20390;-70
2021/08/02 03:25:56;;;;;;;17.63;13.57;;;;;;;15.35;80.90;99292.66;5007751;28;20438;-70
2021/08/02 03:28:31;;;;;;;16.25;12.10;;;;;;;15.34;81.10;99294.47;5008452;28;20050;-70
2021/08/02 03:31:00;;;;;;;14.30;11.20;;;;;;;15.36;81.77;99292.53;4998713;28;20044;-70
2021/08/02 03:33:35;;;;;;;11.60;9.73;;;;;;;15.41;81.61;99297.50;5007464;28;20648;-70
2021/08/02 03:36:06;;;;;;;18.48;15.48;;;;;;;15.43;81.89;99298.19;5008255;28;20445;-70
2021/08/02 03:38:34;;;;;;;14.45;12.57;;;;;;;15.39;80.35;99299.41;5000069;28;20097;-71
2021/08/02 03:41:00;;;;;;;10.95;9.60;;;;;;;15.40;80.56;99299.28;5010137;28;20037;-70
2021/08/02 03:43:26;;;;;;;14.75;8.43;;;;;;;15.43;80.24;99306.16;5009981;28;20038;-69
2021/08/02 03:45:52;;;;;;;9.30;7.72;;;;;;;15.46;80.35;99308.63;5006179;28;20061;-69
2021/08/02 03:48:25;;;;;;;15.15;12.25;;;;;;;15.42;80.40;99308.00;5007088;28;20034;-69
2021/08/02 03:50:51;;;;;;;14.10;10.10;;;;;;;15.42;81.25;99308.00;4998719;28;20044;-69
2021/08/02 03:53:16;;;;;;;12.65;10.55;;;;;;;15.34;80.02;99304.25;5012946;28;20038;-69
2021/08/02 03:55:43;;;;;;;14.35;10.32;;;;;;;15.34;80.64;99309.56;5008253;28;20034;-69
2021/08/02 03:58:14;;;;;;;14.77;10.70;;;;;;;15.29;80.49;99312.56;5003143;28;20038;-69
2021/08/02 04:00:40;;;;;;;14.98;10.23;;;;;;;15.27;81.04;99317.13;5008947;28;20398;-69
2021/08/02 04:03:05;;;;;;;21.77;14.80;;;;;;;15.27;81.72;99316.28;5009541;28;20121;-70
2021/08/02 04:05:30;;;;;;;19.17;15.15;;;;;;;15.25;82.05;99322.56;5012558;28;20049;-69
2021/08/02 04:08:19;;;;;;;20.63;13.93;;;;;;;15.21;83.04;99328.22;5009399;28;20125;-70
2021/08/02 04:10:56;;;;;;;15.43;10.02;;;;;;;15.17;82.17;99326.78;5004122;28;20053;-70
2021/08/02 04:13:42;;;;;;;15.57;11.40;;;;;;;15.16;82.23;99328.59;4997750;28;20069;-70
2021/08/02 04:16:07;;;;;;;11.05;8.52;;;;;;;15.05;80.28;99330.34;4994121;28;20033;-70
2021/08/02 04:18:33;;;;;;;13.88;9.10;;;;;;;14.99;80.96;99340.47;5001270;28;20036;-71
2021/08/02 04:20:58;;;;;;;15.40;8.63;;;;;;;15.00;81.60;99342.16;5004156;28;20026;-70
2021/08/02 04:23:26;;;;;;;13.15;10.57;;;;;;;14.98;81.42;99341.41;5012298;28;20026;-69
2021/08/02 04:25:52;;;;;;;14.25;9.57;;;;;;;14.97;82.57;99345.03;5016062;28;20153;-70
2021/08/02 04:28:17;;;;;;;10.75;8.52;;;;;;;14.97;82.33;99344.19;5002890;28;20509;-70
2021/08/02 04:30:43;;;;;;;12.95;8.25;;;;;;;14.96;82.16;99353.97;5004820;28;20045;-69
2021/08/02 04:33:12;;;;;;;14.40;9.77;;;;;;;14.88;81.96;99351.03;5013034;28;20034;-70
2021/08/02 04:35:39;;;;;;;12.98;8.98;;;;;;;14.84;82.68;99349.56;5012295;28;20037;-69
2021/08/02 04:38:05;;;;;;;15.30;8.00;;;;;;;14.79;82.66;99341.09;5012221;28;20073;-70
2021/08/02 04:40:30;;;;;;;12.82;7.43;;;;;;;14.73;82.74;99345.03;5021524;28;20048;-69
2021/08/02 04:43:02;;;;;;;11.70;7.75;;;;;;;14.72;82.85;99351.31;5012983;28;20989;-70
2021/08/02 04:45:27;;;;;;;9.50;7.93;;;;;;;14.70;82.75;99353.22;4992931;28;20069;-70
2021/08/02 04:47:52;;;;;;;13.60;8.02;;;;;;;14.71;82.97;99346.94;5007060;28;20136;-70
2021/08/02 04:50:18;;;;;;;12.68;8.48;;;;;;;14.73;83.54;99347.69;5033915;28;20420;-70
2021/08/02 04:52:44;;;;;;;15.50;9.23;;;;;;;14.71;83.23;99341.66;5031633;28;20401;-70
2021/08/02 04:55:10;;;;;;;16.80;10.90;;;;;;;14.68;83.42;99339.22;5037415;28;20064;-65
2021/08/02 04:57:36;;;;;;;16.10;12.60;;;;;;;14.62;84.23;99347.66;5020715;28;20124;-65
2021/08/02 05:00:02;;;;;;;19.83;12.82;;;;;;;14.62;85.01;99338.81;5028947;28;20125;-65
2021/08/02 05:02:28;;;;;;;17.92;11.15;;;;;;;14.57;84.52;99341.81;4982999;28;20671;-65
2021/08/02 05:04:53;;;;;;;18.20;12.70;;;;;;;14.64;85.87;99347.53;4991832;28;20042;-66
2021/08/02 05:07:18;;;;;;;13.45;9.05;;;;;;;14.62;84.61;99349.44;4994060;28;20030;-65
2021/08/02 05:09:44;;;;;;;13.93;10.30;;;;;;;14.61;84.17;99353.91;4991807;28;20037;-65
2021/08/02 05:12:10;;;;;;;13.27;9.52;;;;;;;14.56;83.95;99364.00;4991405;28;20023;-65
2021/08/02 05:14:36;;;;;;;14.05;8.63;;;;;;;14.45;83.03;99361.22;4992133;28;20031;-65
2021/08/02 05:17:01;;;;;;;14.63;6.88;;;;;;;14.35;82.72;99356.59;4992128;28;20060;-66
2021/08/02 05:19:27;;;;;;;11.70;9.75;;;;;;;14.34;83.90;99356.72;4991187;28;20080;-69
2021/08/02 05:21:52;;;;;;;16.50;8.93;;;;;;;14.28;84.06;99354.50;5006887;28;20423;-66
2021/08/02 05:24:17;;;;;;;11.27;8.43;;;;;;;14.31;84.74;99359.59;5008480;28;20026;-67
2021/08/02 05:26:52;;;;;;;10.48;7.38;;;;;;;14.29;84.56;99365.00;4986333;28;20026;-68
2021/08/02 05:29:17;;;;;;;15.57;8.15;;;;;;;14.28;85.28;99367.78;4985284;28;20466;-67
2021/08/02 05:31:43;;;;;;;12.38;7.38;;;;;;;14.28;85.60;99368.59;4990570;28;20030;-66
2021/08/02 05:34:08;;;;;;;20.55;11.73;;;;;;;14.23;85.77;99360.13;4991472;28;20049;-67
2021/08/02 05:36:33;;;;;;;13.00;8.75;;;;;;;14.21;86.44;99356.75;4990817;28;20525;-66
2021/08/02 05:38:59;;;;;;;12.43;8.55;;;;;;;14.21;85.70;99371.81;4991417;28;20049;-65
2021/08/02 05:41:24;;;;;;;13.48;10.13;;;;;;;14.24;86.27;99367.13;5012885;28;20708;-65
2021/08/02 05:44:22;;;;;;;12.90;9.27;;;;;;;14.26;86.46;99370.53;4999178;28;20053;-67
2021/08/02 05:46:48;;;;;;;11.32;7.47;;;;;;;14.26;86.36;99373.16;5012822;28;20041;-65
2021/08/02 05:49:13;;;;;;;11.80;8.07;;;;;;;14.26;86.34;99372.31;5004044;28;20116;-65
2021/08/02 05:51:38;;;;;;;16.10;10.75;;;;;;;14.28;86.27;99370.41;5010079;28;20605;-66
2021/08/02 05:54:04;;;;;;;11.55;9.15;;;;;;;14.32;86.50;99372.75;5008547;28;20030;-67
2021/08/02 05:56:29;;;;;;;13.18;8.25;;;;;;;14.31;86.39;99380.81;5010686;28;20029;-66
2021/08/02 05:58:54;;;;;;;10.38;8.65;;;;;;;14.36;86.04;99373.38;5004121;28;20850;-66
2021/08/02 06:01:25;;;;;;;16.33;9.43;;;;;;;14.39;85.56;99371.31;5025745;28;20048;-66
2021/08/02 06:03:51;;;;;;;9.90;7.07;;;;;;;14.37;85.78;99373.25;5009805;28;20040;-66
2021/08/02 06:06:16;;;;;;;9.90;8.15;;;;;;;14.32;85.36;99369.22;5008090;28;20041;-67
2021/08/02 06:08:42;;;;;;;12.13;9.20;;;;;;;14.32;85.58;99370.09;4995983;28;20065;-69
2021/08/02 06:11:08;;;;;;;9.82;7.68;;;;;;;14.37;85.89;99377.69;5000580;28;20037;-69
2021/08/02 06:13:33;;;;;;;11.95;9.00;;;;;;;14.40;85.18;99377.50;4988432;28;20045;-69
2021/08/02 06:15:59;;;;;;;10.85;7.10;;;;;;;14.46;85.28;99378.84;4993280;28;20131;-69
2021/08/02 06:18:30;;;;;;;10.82;8.15;;;;;;;14.43;84.45;99377.28;4984599;28;20111;-71
2021/08/02 06:21:01;;;;;;;11.07;7.63;;;;;;;14.45;84.29;99380.66;5008567;28;20034;-70
2021/08/02 06:23:26;;;;;;;13.65;9.10;;;;;;;14.48;84.64;99391.03;4991629;28;20033;-70
2021/08/02 06:25:52;;;;;;;8.20;6.72;;;;;;;14.52;84.30;99395.19;5005178;28;20092;-70
2021/08/02 06:28:17;;;;;;;14.95;7.93;;;;;;;14.52;84.21;99386.34;5005244;28;20049;-70
2021/08/02 06:30:45;;;;;;;10.10;6.97;;;;;;;14.52;84.08;99389.00;4993591;28;20046;-70
2021/08/02 06:33:14;;;;;;;13.65;8.27;;;;;;;14.53;84.16;99396.91;5002195;28;20034;-70
2021/08/02 06:35:40;;;;;;;19.33;11.88;;;;;;;14.57;84.68;99398.38;4988035;28;20675;-71
2021/08/02 06:38:17;;;;;;;8.57;6.20;;;;;;;14.57;84.80;99394.88;4981482;28;20049;-71
2021/08/02 06:40:44;;;;;;;12.70;9.02;;;;;;;14.54;84.16;99403.88;4988265;28;20409;-71
2021/08/02 06:43:09;;;;;;;16.52;10.20;;;;;;;14.55;84.11;99404.75;4987067;28;20045;-71
2021/08/02 06:45:34;;;;;;;16.58;10.73;;;;;;;14.49;83.96;99413.09;4985035;28;20045;-70
2021/08/02 06:48:00;;;;;;;12.65;7.78;;;;;;;14.46;84.64;99411.53;4988981;28;20038;-71
2021/08/02 06:50:25;;;;;;;13.95;9.32;;;;;;;14.57;85.04;99416.97;4993976;28;20137;-58
2021/08/02 06:52:52;;;;;;;11.52;7.97;;;;;;;14.70;84.39;99419.56;4996157;28;20156;-57
2021/08/02 06:55:20;;;;;;;12.45;8.60;;;;;;;14.77;83.58;99419.97;5008396;28;20040;-55
2021/08/02 06:57:45;;;;;;;17.23;8.00;;;;;;;14.78;83.78;99417.19;4979171;28;20553;-58
2021/08/02 07:00:11;;;;;;;8.82;7.57;;;;;;;14.85;82.56;99422.06;4989780;28;20109;-56
2021/08/02 07:02:37;;;;;;;7.65;6.78;;;;;;;14.87;81.52;99428.13;4985072;28;20039;-71
2021/08/02 07:05:02;;;;;;;9.18;6.78;;;;;;;14.79;82.33;99423.34;4980342;28;20022;-70
2021/08/02 07:07:30;;;;;;;14.68;9.75;;;;;;;14.70;83.00;99432.84;4996851;28;20111;-71
2021/08/02 07:10:06;;;;;;;10.45;7.75;;;;;;;14.68;83.74;99426.78;4992574;28;20048;-71
2021/08/02 07:12:31;;;;;;;14.18;11.02;;;;;;;14.72;83.98;99436.22;4999714;28;20034;-69
2021/08/02 07:14:57;;;;;;;21.05;11.73;;;;;;;14.70;84.10;99440.78;4995405;28;20049;-69
2021/08/02 07:17:22;;;;;;;19.95;11.43;;;;;;;14.69;83.89;99433.78;5007004;28;20048;-70
2021/08/02 07:19:47;;;;;;;16.73;11.00;;;;;;;14.73;83.50;99439.72;5005805;28;20033;-69
2021/08/02 07:22:13;;;;;;;14.00;9.90;;;;;;;14.78;83.05;99430.47;5003957;28;20041;-71
2021/08/02 07:24:38;;;;;;;12.43;8.70;;;;;;;14.87;81.51;99426.31;5003745;28;20023;-70
2021/08/02 07:27:04;;;;;;;15.40;8.63;;;;;;;14.90;80.74;99430.56;4992181;28;20470;-70
2021/08/02 07:29:50;;;;;;;9.05;6.45;;;;;;;15.01;80.33;99430.59;5003978;28;20406;-68
2021/08/02 07:32:15;;;;;;;;;;;;;;;15.14;80.34;99423.44;5003754;28;20482;-69
2021/08/02 07:34:40;;;;;;;;;;;;;;;15.22;80.57;99425.53;4996342;28;19917;-70
2021/08/02 07:37:06;;;;;;;15.47;10.30;;;;;;;15.20;79.63;99432.75;5005034;28;20636;-71
2021/08/02 07:39:31;;;;;;;11.45;9.35;;;;;;;15.09;80.02;99440.66;4993676;28;20512;-71
2021/08/02 07:42:03;;;;;;;13.60;9.13;;;;;;;15.08;80.84;99439.81;5004094;28;20204;-70
2021/08/02 07:44:29;;;;;;;12.82;9.20;;;;;;;14.94;79.53;99443.50;5004706;28;20034;-71
2021/08/02 07:46:54;;;;;;;11.25;7.38;;;;;;;14.85;80.52;99440.66;4988548;28;20398;-70
2021/08/02 07:49:35;;;;;;;13.90;7.95;;;;;;;14.80;80.00;99438.31;5006872;28;20533;-69
2021/08/02 07:52:00;;;;;;;9.98;7.75;;;;;;;14.73;79.81;99437.91;5007182;28;20486;-70
2021/08/02 07:54:25;;;;;;;9.30;6.25;;;;;;;14.72;79.79;99444.19;5006275;28;20164;-70
2021/08/02 07:56:51;;;;;;;13.75;6.57;;;;;;;14.76;79.85;99443.00;5006006;28;20107;-71
2021/08/02 07:59:19;;;;;;;15.48;7.93;;;;;;;14.81;80.00;99437.34;5006124;28;20034;-71
2021/08/02 08:01:45;;;;;;;9.10;6.65;;;;;;;14.86;79.51;99440.53;5005389;28;20581;-70
2021/08/02 08:04:10;;;;;;;9.38;6.78;;;;;;;14.86;78.61;99440.53;5007184;28;20033;-70
2021/08/02 08:06:35;;;;;;;17.13;7.82;;;;;;;14.90;79.46;99442.00;5006669;28;20065;-72
2021/08/02 08:09:01;;;;;;;14.85;9.10;;;;;;;14.95;79.77;99436.38;5005971;28;20045;-70
2021/08/02 08:11:26;;;;;;;15.88;7.53;;;;;;;14.97;79.58;99431.81;5005642;28;20057;-69
2021/08/02 08:13:51;;;;;;;16.95;7.57;;;;;;;15.02;80.00;99427.84;5005382;28;20085;-70
2021/08/02 08:16:17;;;;;;;14.18;7.57;;;;;;;15.06;79.36;99428.44;4996228;28;20034;-74
2021/08/02 08:18:42;;;;;;;10.23;6.25;;;;;;;14.99;77.63;99424.56;5005735;28;20084;-71
2021/08/02 08:21:08;;;;;;;10.05;5.93;;;;;;;15.06;78.15;99427.59;4998539;28;20064;-71
2021/08/02 08:23:36;;;;;;;14.80;9.65;;;;;;;15.18;79.29;99440.81;5016476;28;20044;-71
2021/08/02 08:26:02;;;;;;;13.02;7.03;;;;;;;15.21;78.32;99442.41;5009627;28;20086;-70
2021/08/02 08:28:28;;;;;;;11.68;6.05;;;;;;;15.03;77.88;99440.13;5016402;28;20037;-74
2021/08/02 08:30:54;;;;;;;14.95;6.60;;;;;;;14.98;78.44;99444.94;5026726;28;20459;-74
2021/08/02 08:33:19;;;;;;;7.53;5.80;;;;;;;14.96;78.67;99448.66;5001305;28;20387;-70
2021/08/02 08:35:45;;;;;;;15.18;7.30;;;;;;;14.93;78.41;99452.38;5006711;28;20048;-70
2021/08/02 08:38:13;;;;;;;14.70;6.72;;;;;;;14.94;78.71;99447.94;5014849;28;20132;-70
2021/08/02 08:40:38;;;;;;;11.70;7.32;;;;;;;14.96;80.13;99454.84;5005463;28;20052;-70
2021/08/02 08:43:05;;;;;;;15.88;10.77;;;;;;;14.84;80.02;99449.56;5007746;28;20093;-72
2021/08/02 08:45:31;;;;;;;17.45;8.27;;;;;;;14.79;81.05;99455.19;4988540;28;20038;-69
2021/08/02 08:47:57;;;;;;;9.45;6.80;;;;;;;14.78;80.66;99449.03;5005764;28;20034;-69
2021/08/02 08:50:24;;;;;;;13.20;8.50;;;;;;;14.74;81.17;99458.19;5004375;28;20073;-71
2021/08/02 08:52:59;;;;;;;14.10;8.23;;;;;;;14.73;81.02;99461.78;4997984;28;20072;-69
2021/08/02 08:55:25;;;;;;;11.68;6.97;;;;;;;14.80;81.88;99457.75;5022375;28;20481;-69
2021/08/02 08:57:50;;;;;;;12.45;8.15;;;;;;;14.84;81.88;99462.81;5022845;28;20107;-70
2021/08/02 09:00:23;;;;;;;17.27;9.52;;;;;;;14.84;81.76;99468.13;5024969;28;20494;-70
2021/08/02 09:02:50;;;;;;;10.73;6.13;;;;;;;14.80;80.59;99464.88;5012352;28;20041;-70
2021/08/02 09:05:15;;;;;;;9.02;6.65;;;;;;;14.69;80.29;99464.78;5006125;28;20042;-69
2021/08/02 09:07:43;;;;;;;5.43;4.22;;;;;;;14.67;80.69;99469.34;5005895;28;20068;-69
2021/08/02 09:10:14;;;;;;;9.70;4.05;;;;;;;14.71;79.90;99466.34;5006636;28;20044;-71
2021/08/02 09:12:55;;;;;;;10.60;6.28;;;;;;;14.78;80.11;99472.09;5028911;28;20041;-69
2021/08/02 09:15:42;;;;;;;7.90;5.13;;;;;;;14.75;79.12;99475.81;5004711;28;20108;-71
2021/08/02 09:18:14;;;;;;;8.88;4.85;;;;;;;14.76;78.76;99468.69;5001296;28;20061;-70
2021/08/02 09:20:39;;;;;;;8.98;4.55;;;;;;;14.73;78.76;99471.56;5010686;28;20038;-72
2021/08/02 09:23:13;;;;;;;10.38;4.97;;;;;;;14.68;78.85;99473.69;5006330;28;20068;-69
2021/08/02 09:26:01;;;;;;;8.23;4.65;;;;;;;14.62;78.96;99482.97;5011030;28;20049;-70
2021/08/02 09:29:01;;;;;;;14.43;5.43;;;;;;;14.53;79.82;99484.44;4995290;28;20038;-71
2021/08/02 09:31:45;;;;;;;7.07;4.05;;;;;;;14.51;80.06;99480.16;4993923;28;20044;-70
2021/08/02 09:34:22;;;;;;;8.02;3.75;;;;;;;14.51;79.17;99480.16;5007077;28;20034;-72
2021/08/02 09:36:54;;;;;;;7.07;3.90;;;;;;;14.57;79.58;99480.63;5008278;28;20042;-71
2021/08/02 09:39:20;;;;;;;8.95;3.85;;;;;;;14.60;78.92;99479.56;5005839;28;20038;-70
2021/08/02 09:41:46;;;;;;;5.15;3.85;;;;;;;14.62;79.27;99479.44;5007493;28;20033;-73
2021/08/02 09:44:23;;;;;;;11.05;4.43;;;;;;;14.65;79.07;99480.06;5007346;28;20087;-72
2021/08/02 09:46:56;;;;;;;6.10;3.85;;;;;;;14.62;78.32;99480.31;4997283;28;20034;-70
2021/08/02 09:49:44;;;;;;;6.47;4.30;;;;;;;14.61;78.12;99478.59;5011342;28;20108;-69
2021/08/02 09:52:10;;;;;;;9.55;5.25;;;;;;;14.62;78.81;99484.75;5003138;28;20404;-70
2021/08/02 09:54:35;;;;;;;8.68;4.13;;;;;;;14.61;79.14;99478.59;5002909;28;20044;-70
2021/08/02 09:57:01;;;;;;;10.63;5.82;;;;;;;14.63;79.61;99482.00;5010766;28;20072;-73
2021/08/02 09:59:26;;;;;;;9.23;5.00;;;;;;;14.57;80.12;99480.63;5004534;28;20030;-72
2021/08/02 10:01:54;;;;;;;8.68;4.55;;;;;;;14.50;79.71;99479.31;5003600;28;20083;-70
2021/08/02 10:04:21;;;;;;;6.38;4.55;;;;;;;14.47;79.66;99489.28;4995305;28;20045;-70
2021/08/02 10:06:47;;;;;;;9.68;4.80;;;;;;;14.44;78.93;99490.34;5003575;28;20050;-70
2021/08/02 10:09:13;;;;;;;12.85;4.93;;;;;;;14.45;79.38;99486.75;5013128;28;20041;-69
2021/08/02 10:11:42;;;;;;;8.65;4.93;;;;;;;14.48;80.32;99491.00;4992676;28;20058;-69
2021/08/02 10:14:09;;;;;;;9.40;5.40;;;;;;;14.51;79.67;99488.13;4993769;28;20038;-68
2021/08/02 10:16:38;;;;;;;10.18;4.80;;;;;;;14.57;79.70;99479.75;5010756;28;20034;-69
2021/08/02 10:19:10;;;;;;;13.02;6.00;;;;;;;14.60;79.41;99482.22;5004427;28;20034;-69
2021/08/02 10:22:06;;;;;;;8.00;5.10;;;;;;;14.65;78.93;99479.25;5038686;28;20037;-69
2021/08/02 10:25:00;;;;;;;10.48;5.22;;;;;;;14.72;79.92;99484.00;5009301;28;20393;-69
2021/08/02 10:27:29;;;;;;;10.98;6.20;;;;;;;14.81;80.35;99479.81;4998555;28;20030;-71
2021/08/02 10:29:54;;;;;;;9.15;4.57;;;;;;;14.78;79.14;99486.19;5009398;28;20133;-70
2021/08/02 10:32:25;;;;;;;6.95;4.45;;;;;;;14.83;78.07;99491.19;5009754;28;20129;-70
2021/08/02 10:34:52;;;;;;;10.07;4.15;;;;;;;14.85;77.69;99486.63;5007795;28;20038;-70
2021/08/02 10:37:37;;;;;;;8.20;4.75;;;;;;;14.88;77.72;99482.88;5006549;28;20030;-70
2021/08/02 10:40:08;;;;;;;8.30;4.03;;;;;;;14.88;77.75;99486.38;5009276;28;20445;-68
2021/08/02 10:42:53;;;;;;;11.23;4.80;;;;;;;14.84;78.14;99484.06;5008491;28;20051;-72
2021/08/02 10:45:32;;;;;;;10.20;3.20;;;;;;;14.92;77.76;99481.72;5004260;28;20576;-69
2021/08/02 10:47:58;;;;;;;18.25;5.65;;;;;;;14.88;76.87;99489.03;5010939;28;20053;-72
2021/08/02 10:50:26;;;;;;;13.20;4.53;;;;;;;14.85;76.92;99481.31;5002171;28;20179;-69
2021/08/02 10:52:53;;;;;;;6.53;4.60;;;;;;;14.84;75.42;99478.75;5001738;28;20040;-71
2021/08/02 10:55:18;;;;;;;6.13;3.75;;;;;;;14.88;76.07;99485.53;4987911;28;20038;-70
2021/08/02 10:57:56;;;;;;;9.23;3.95;;;;;;;14.90;75.12;99492.44;4983062;28;20038;-69
2021/08/02 11:00:21;;;;;;;9.90;4.45;;;;;;;14.84;75.26;99492.91;4983859;28;20030;-69
2021/08/02 11:02:52;;;;;;;8.20;5.35;;;;;;;14.89;76.08;99487.22;4994869;28;20610;-69
2021/08/02 11:05:19;;;;;;;10.82;5.53;;;;;;;14.83;76.59;99491.19;5002730;28;20030;-73
2021/08/02 11:07:45;;;;;;;11.43;4.93;;;;;;;14.72;77.39;99493.78;5002772;28;20040;-70
2021/08/02 11:10:12;;;;;;;10.13;5.72;;;;;;;14.76;77.40;99488.09;5002734;28;20026;-70
2021/08/02 11:12:47;;;;;;;12.93;5.75;;;;;;;14.83;77.17;99485.88;5004032;28;20026;-69
2021/08/02 11:15:13;;;;;;;10.88;6.75;;;;;;;14.92;76.97;99484.38;5005210;28;20034;-70
2021/08/02 11:17:50;;;;;;;7.20;6.15;;;;;;;15.03;76.65;99484.44;5011587;28;20049;-69
2021/08/02 11:20:15;;;;;;;11.32;4.70;;;;;;;15.09;76.86;99483.13;5014729;28;20088;-68
2021/08/02 11:22:50;;;;;;;11.07;5.90;;;;;;;15.17;77.54;99486.94;5013826;28;20042;-69
2021/08/02 11:25:33;;;;;;;11.60;6.38;;;;;;;15.17;77.62;99486.94;5012883;28;20087;-69
2021/08/02 11:28:00;;;;;;;12.43;6.78;;;;;;;15.23;78.15;99482.97;5015641;28;20034;-70
2021/08/02 11:30:32;;;;;;;8.25;6.47;;;;;;;15.29;78.32;99487.00;5015745;28;20049;-69
2021/08/02 11:32:57;;;;;;;13.90;5.82;;;;;;;15.34;78.73;99483.03;5015110;28;20038;-69
2021/08/02 11:35:37;;;;;;;15.75;6.60;;;;;;;15.39;77.08;99485.38;5015183;28;20053;-69